Time;durP1;ratioP1;P1;durP2;ratioP2;P2;SDS_P1;SDS_P2;PMS_P1;PMS_P2;Temp;Humidity;BMP_temperature;BMP_pressure;BME280_temperature;BME280_humidity;BME280_pressure;Samples;Min_cycle;Max_cycle;Signal;HPM_P1;HPM_P2
2021/01/11 00:00:56;;;;;;;27.47;12.13;;;-0.50;99.90;;;;;;5069533;28;20419;-81
2021/01/11 00:03:22;;;;;;;26.40;11.87;;;-0.50;99.90;;;;;;5068958;28;20175;-82
2021/01/11 00:05:48;;;;;;;24.30;12.13;;;-0.50;99.90;;;;;;5068900;28;20514;-81
2021/01/11 00:08:14;;;;;;;17.90;11.07;;;-0.70;99.90;;;;;;5068777;28;20223;-82
2021/01/11 00:10:40;;;;;;;15.97;12.47;;;-0.60;99.90;;;;;;5069253;28;20406;-82
2021/01/11 00:13:06;;;;;;;18.27;9.57;;;-0.50;99.90;;;;;;5068834;28;20174;-82
2021/01/11 00:15:32;;;;;;;24.70;11.80;;;-0.40;99.90;;;;;;5071088;28;20160;-82
2021/01/11 00:17:58;;;;;;;17.53;10.00;;;-0.50;99.90;;;;;;5070806;28;20217;-82
2021/01/11 00:20:23;;;;;;;17.27;10.37;;;-0.50;99.90;;;;;;5070794;28;20422;-81
2021/01/11 00:22:49;;;;;;;15.27;10.37;;;-0.40;99.90;;;;;;5069239;28;20251;-81
2021/01/11 00:25:15;;;;;;;15.20;11.60;;;-0.40;99.90;;;;;;5068924;28;20217;-82
2021/01/11 00:27:42;;;;;;;17.70;11.73;;;-0.50;99.90;;;;;;5068849;28;20192;-80
2021/01/11 00:30:09;;;;;;;14.27;9.53;;;-0.50;99.90;;;;;;5068791;28;20192;-80
2021/01/11 00:32:37;;;;;;;12.67;9.17;;;-0.50;99.90;;;;;;5051104;28;20391;-83
2021/01/11 00:35:05;;;;;;;18.40;10.87;;;-0.40;99.90;;;;;;5068097;28;20398;-82
2021/01/11 00:37:31;;;;;;;22.37;14.13;;;-0.50;99.90;;;;;;5069266;28;20387;-82
2021/01/11 00:39:56;;;;;;;12.30;7.90;;;-0.50;99.90;;;;;;5067581;28;20451;-81
2021/01/11 00:42:22;;;;;;;14.00;8.93;;;-0.50;99.90;;;;;;5067684;28;20164;-82
2021/01/11 00:44:49;;;;;;;20.37;13.70;;;-0.60;99.90;;;;;;5049642;28;20164;-82
2021/01/11 00:47:15;;;;;;;23.40;13.93;;;-0.70;99.90;;;;;;5067718;28;20473;-81
2021/01/11 00:49:41;;;;;;;16.57;10.70;;;-0.70;99.90;;;;;;5067912;28;20414;-82
2021/01/11 00:52:07;;;;;;;17.93;10.87;;;-0.80;99.90;;;;;;5050225;28;20410;-80
2021/01/11 00:54:34;;;;;;;24.20;11.97;;;-0.70;99.90;;;;;;5067752;28;20859;-80
2021/01/11 00:56:59;;;;;;;14.60;11.07;;;-0.70;99.90;;;;;;5069714;28;20407;-81
2021/01/11 00:59:25;;;;;;;10.87;8.63;;;-0.80;99.90;;;;;;5070718;28;20446;-81
2021/01/11 01:01:53;;;;;;;23.90;10.50;;;-0.90;99.90;;;;;;5074330;28;20185;-79
2021/01/11 01:04:20;;;;;;;15.70;9.90;;;-1.10;99.90;;;;;;5075109;28;20380;-80
2021/01/11 01:06:47;;;;;;;14.90;8.70;;;-1.10;99.90;;;;;;5073760;28;20407;-82
2021/01/11 01:09:13;;;;;;;16.30;8.60;;;-1.10;99.90;;;;;;5069672;28;20382;-82
2021/01/11 01:11:41;;;;;;;16.80;10.87;;;-1.00;99.90;;;;;;5069785;28;20395;-80
2021/01/11 01:14:08;;;;;;;16.27;11.30;;;-1.20;99.90;;;;;;5069971;28;20387;-80
2021/01/11 01:16:34;;;;;;;13.30;8.47;;;-1.20;99.90;;;;;;5069811;28;20393;-81
2021/01/11 01:19:00;;;;;;;11.57;8.80;;;-1.10;99.90;;;;;;5070194;28;20466;-81
2021/01/11 01:21:26;;;;;;;24.13;9.30;;;-1.00;99.90;;;;;;5070245;28;20430;-81
2021/01/11 01:23:52;;;;;;;14.77;11.27;;;-1.30;99.90;;;;;;5073431;28;20207;-81
2021/01/11 01:26:20;;;;;;;7.97;6.50;;;-1.20;99.90;;;;;;5074015;28;20179;-81
2021/01/11 01:28:46;;;;;;;10.87;7.47;;;-1.20;99.90;;;;;;5074175;28;20492;-81
2021/01/11 01:31:12;;;;;;;17.90;9.37;;;-1.60;99.90;;;;;;5071641;28;20410;-81
2021/01/11 01:33:38;;;;;;;19.60;9.67;;;-2.20;99.90;;;;;;5070537;28;20169;-80
2021/01/11 01:36:04;;;;;;;20.13;8.30;;;-2.40;99.90;;;;;;5074171;28;20413;-81
2021/01/11 01:38:30;;;;;;;14.13;8.17;;;-2.50;99.90;;;;;;5074905;28;20192;-81
2021/01/11 01:40:56;;;;;;;18.37;9.00;;;-2.70;99.90;;;;;;5075414;28;20387;-81
2021/01/11 01:43:22;;;;;;;17.50;11.67;;;-2.90;99.90;;;;;;5075411;28;20164;-81
2021/01/11 01:45:48;;;;;;;12.07;8.63;;;-3.10;99.90;;;;;;5073428;28;20403;-81
2021/01/11 01:48:14;;;;;;;18.00;9.17;;;-2.90;99.90;;;;;;5072350;28;20165;-81
2021/01/11 01:50:42;;;;;;;11.77;8.17;;;-2.90;99.90;;;;;;5037538;28;20256;-81
2021/01/11 01:53:08;;;;;;;10.73;7.43;;;-2.90;99.90;;;;;;5072769;28;20739;-82
2021/01/11 01:55:37;;;;;;;22.43;11.03;;;-2.90;99.90;;;;;;5074026;28;20591;-81
2021/01/11 01:58:05;;;;;;;21.77;10.40;;;-2.70;99.90;;;;;;5074352;28;20160;-81
2021/01/11 02:00:32;;;;;;;13.83;9.10;;;-2.90;99.90;;;;;;5074627;28;20391;-81
2021/01/11 02:02:57;;;;;;;22.40;10.00;;;-2.50;99.90;;;;;;5074461;28;20441;-81
2021/01/11 02:05:23;;;;;;;23.60;8.63;;;-2.20;99.90;;;;;;5074241;28;20383;-81
2021/01/11 02:08:05;;;;;;;17.27;10.93;;;-2.70;99.90;;;;;;5073475;28;20235;-82
2021/01/11 02:10:59;;;;;;;10.57;7.90;;;-2.80;99.90;;;;;;5072066;28;20168;-81
2021/01/11 02:13:50;;;;;;;18.97;11.30;;;-2.70;99.90;;;;;;5072357;28;20728;-81
2021/01/11 02:16:40;;;;;;;13.80;8.30;;;-2.50;99.90;;;;;;5058665;28;20400;-81
2021/01/11 02:19:29;;;;;;;19.47;9.00;;;-2.00;99.90;;;;;;5074820;28;20533;-81
2021/01/11 02:22:02;;;;;;;10.73;7.57;;;-1.60;99.90;;;;;;5076069;28;20871;-81
2021/01/11 02:24:55;;;;;;;14.80;10.50;;;-1.50;99.90;;;;;;5054233;28;20402;-81
2021/01/11 02:27:41;;;;;;;11.27;9.37;;;-1.60;99.90;;;;;;5075878;28;20450;-80
2021/01/11 02:30:12;;;;;;;15.33;8.00;;;-1.90;99.90;;;;;;5078037;28;20414;-81
2021/01/11 02:32:45;;;;;;;14.43;9.23;;;-2.70;99.90;;;;;;5071751;28;20506;-81
2021/01/11 02:35:12;;;;;;;18.17;11.53;;;-2.40;99.90;;;;;;5052913;28;20421;-81
2021/01/11 02:37:39;;;;;;;12.70;8.80;;;-2.20;99.90;;;;;;5071589;28;20409;-81
2021/01/11 02:40:07;;;;;;;15.37;9.40;;;-2.00;99.90;;;;;;5071152;28;20472;-81
2021/01/11 02:42:33;;;;;;;25.53;12.87;;;-2.10;99.90;;;;;;5070968;28;20391;-81
2021/01/11 02:44:59;;;;;;;31.43;9.73;;;-2.30;99.90;;;;;;5070089;28;20770;-81
2021/01/11 02:47:59;;;;;;;17.47;10.60;;;-2.40;99.90;;;;;;5051345;28;20379;-80
2021/01/11 02:50:25;;;;;;;20.07;8.47;;;-2.50;99.90;;;;;;5068612;28;20772;-81
2021/01/11 02:53:29;;;;;;;17.53;8.67;;;-2.60;99.90;;;;;;5068761;28;20394;-81
2021/01/11 02:56:02;;;;;;;13.87;9.70;;;-2.70;99.90;;;;;;5071285;28;20460;-81
2021/01/11 02:58:49;;;;;;;13.00;8.30;;;-2.50;99.90;;;;;;5069940;28;20525;-81
2021/01/11 03:01:17;;;;;;;14.57;8.27;;;-2.40;99.90;;;;;;5070126;28;20380;-81
2021/01/11 03:03:47;;;;;;;19.77;13.90;;;-2.60;99.90;;;;;;5069669;28;20387;-81
2021/01/11 03:06:13;;;;;;;19.80;8.33;;;-2.80;99.90;;;;;;5069279;28;20386;-81
2021/01/11 03:08:39;;;;;;;14.90;7.73;;;-2.90;99.90;;;;;;5068252;28;20803;-82
2021/01/11 03:11:05;;;;;;;11.83;7.50;;;-3.10;99.90;;;;;;5069887;28;20407;-82
2021/01/11 03:13:30;;;;;;;18.53;8.63;;;-2.80;99.90;;;;;;5070178;28;20458;-80
2021/01/11 03:15:56;;;;;;;29.87;12.00;;;-2.50;99.90;;;;;;5068950;28;20402;-82
2021/01/11 03:18:22;;;;;;;19.80;10.97;;;-2.10;99.90;;;;;;5070165;28;20207;-81
2021/01/11 03:20:48;;;;;;;17.97;10.00;;;-1.90;99.90;;;;;;5070543;28;20255;-82
2021/01/11 03:23:14;;;;;;;10.93;8.00;;;-1.70;99.90;;;;;;5052418;28;20395;-82
2021/01/11 03:25:41;;;;;;;13.23;9.50;;;-1.50;99.90;;;;;;5071035;28;20164;-81
2021/01/11 03:28:07;;;;;;;22.45;12.43;;;-1.50;99.90;;;;;;5070229;28;20490;-82
2021/01/11 03:30:33;;;;;;;19.20;12.20;;;-1.40;99.90;;;;;;5071454;28;20172;-82
2021/01/11 03:32:59;;;;;;;8.43;7.60;;;-1.30;99.90;;;;;;5071597;28;20168;-82
2021/01/11 03:35:25;;;;;;;20.20;9.30;;;-1.20;99.90;;;;;;5071319;28;20448;-82
2021/01/11 03:37:51;;;;;;;18.17;9.37;;;-1.40;99.90;;;;;;5071497;28;20247;-82
2021/01/11 03:40:17;;;;;;;17.23;8.83;;;-1.60;99.90;;;;;;5073230;28;20486;-79
2021/01/11 03:42:42;;;;;;;20.37;9.70;;;-1.70;99.90;;;;;;5077355;28;20168;-79
2021/01/11 03:45:09;;;;;;;26.70;11.43;;;-2.10;99.90;;;;;;5077493;28;20164;-79
2021/01/11 03:47:36;;;;;;;9.57;7.10;;;-1.80;99.90;;;;;;5059966;28;20231;-79
2021/01/11 03:50:05;;;;;;;14.50;7.33;;;-2.40;99.90;;;;;;5071443;28;20429;-82
2021/01/11 03:52:35;;;;;;;19.87;11.97;;;-2.40;99.90;;;;;;5069083;28;20397;-81
2021/01/11 03:55:03;;;;;;;14.33;8.53;;;-2.40;99.90;;;;;;5070414;28;20398;-82
2021/01/11 03:57:30;;;;;;;17.70;10.07;;;-2.60;99.90;;;;;;5070276;28;20402;-82
2021/01/11 03:59:57;;;;;;;14.37;7.90;;;-2.70;99.90;;;;;;5070998;28;20871;-82
2021/01/11 04:02:22;;;;;;;19.90;8.60;;;-2.30;99.90;;;;;;5071636;28;20395;-82
2021/01/11 04:04:48;;;;;;;24.77;8.63;;;-2.30;99.90;;;;;;5050343;28;20369;-82
2021/01/11 04:07:14;;;;;;;21.67;7.93;;;-2.10;99.90;;;;;;5071272;28;20305;-81
2021/01/11 04:09:40;;;;;;;15.97;10.07;;;-2.70;99.90;;;;;;5071885;28;20191;-82
2021/01/11 04:12:06;;;;;;;15.03;8.90;;;-2.80;99.90;;;;;;5070981;28;20421;-82
2021/01/11 04:14:32;;;;;;;14.70;9.63;;;-2.90;99.90;;;;;;5071598;28;20470;-81
2021/01/11 04:16:58;;;;;;;21.33;9.80;;;-2.90;99.90;;;;;;5071009;28;20394;-82
2021/01/11 04:19:24;;;;;;;9.37;7.37;;;-2.90;99.90;;;;;;5071347;28;20196;-82
2021/01/11 04:21:49;;;;;;;10.57;8.30;;;-2.60;99.90;;;;;;5071554;28;20168;-81
2021/01/11 04:24:15;;;;;;;20.50;10.00;;;-2.50;99.90;;;;;;5072170;28;20171;-82
2021/01/11 04:26:44;;;;;;;9.87;6.87;;;-2.80;99.90;;;;;;5071813;28;20168;-81
2021/01/11 04:29:10;;;;;;;9.90;6.30;;;-2.70;99.90;;;;;;5074465;28;20159;-82
2021/01/11 04:31:35;;;;;;;9.93;6.93;;;-2.70;99.90;;;;;;5074838;28;20475;-79
2021/01/11 04:34:01;;;;;;;12.20;6.87;;;-3.10;99.90;;;;;;5074854;28;20259;-79
2021/01/11 04:36:27;;;;;;;13.43;7.57;;;-3.10;99.90;;;;;;5075665;28;20198;-78
2021/01/11 04:38:53;;;;;;;17.97;9.47;;;-2.90;99.90;;;;;;5075770;28;20255;-78
2021/01/11 04:41:21;;;;;;;13.93;9.87;;;-2.90;99.90;;;;;;5075631;28;20281;-78
2021/01/11 04:43:48;;;;;;;8.40;5.60;;;-3.00;99.90;;;;;;5075450;28;20194;-79
2021/01/11 04:46:14;;;;;;;25.30;8.07;;;-3.30;99.90;;;;;;5071447;28;20410;-80
2021/01/11 04:48:41;;;;;;;21.27;9.30;;;-3.10;99.90;;;;;;5083113;28;20424;-78
2021/01/11 04:51:07;;;;;;;10.53;7.40;;;-3.30;99.90;;;;;;5095332;28;20394;-79
2021/01/11 04:53:35;;;;;;;19.00;8.53;;;-3.00;99.90;;;;;;5095517;28;20397;-78
2021/01/11 04:56:04;;;;;;;9.93;7.23;;;-3.30;99.90;;;;;;5095629;28;20412;-78
2021/01/11 04:58:52;;;;;;;10.00;8.50;;;-3.20;99.90;;;;;;5083337;28;20468;-78
2021/01/11 05:01:22;;;;;;;20.93;7.50;;;-2.70;99.90;;;;;;5071207;28;20403;-81
2021/01/11 05:03:49;;;;;;;10.93;6.77;;;-2.60;99.90;;;;;;5070972;28;20394;-81
2021/01/11 05:06:18;;;;;;;9.73;7.07;;;-2.50;99.90;;;;;;5070668;28;20801;-79
2021/01/11 05:08:44;;;;;;;4.53;4.23;;;-2.40;99.90;;;;;;5069990;28;20553;-81
2021/01/11 05:11:11;;;;;;;14.40;9.07;;;-2.20;99.90;;;;;;5071501;28;20390;-81
2021/01/11 05:13:37;;;;;;;7.60;5.80;;;-2.90;99.90;;;;;;5058002;28;20421;-81
2021/01/11 05:16:13;;;;;;;9.67;4.67;;;-2.80;99.90;;;;;;5077612;28;20433;-82
2021/01/11 05:18:39;;;;;;;13.80;6.63;;;-2.60;99.90;;;;;;5074969;28;20433;-82
2021/01/11 05:21:06;;;;;;;10.10;6.87;;;-2.70;99.90;;;;;;5057370;28;20426;-82
2021/01/11 05:23:38;;;;;;;6.07;4.97;;;-3.10;99.90;;;;;;5075361;28;20389;-82
2021/01/11 05:26:15;;;;;;;20.30;8.23;;;-3.00;99.90;;;;;;5075298;28;20395;-82
2021/01/11 05:28:42;;;;;;;7.80;5.40;;;-2.80;99.90;;;;;;5070999;28;20414;-81
2021/01/11 05:31:08;;;;;;;11.80;6.27;;;-3.40;99.90;;;;;;5075479;28;20426;-82
2021/01/11 05:33:35;;;;;;;8.63;7.30;;;-3.30;99.90;;;;;;5075334;28;20394;-82
2021/01/11 05:36:06;;;;;;;12.00;7.57;;;-3.20;99.90;;;;;;5074169;28;20361;-81
2021/01/11 05:38:35;;;;;;;10.43;6.97;;;-2.90;99.90;;;;;;5074857;28;20416;-81
2021/01/11 05:41:13;;;;;;;11.80;5.53;;;-3.50;99.90;;;;;;5074646;28;20402;-81
2021/01/11 05:43:39;;;;;;;10.00;6.73;;;-3.40;99.90;;;;;;5075493;28;20441;-82
2021/01/11 05:46:26;;;;;;;15.93;7.97;;;-3.00;99.90;;;;;;5078371;28;20441;-81
2021/01/11 05:49:08;;;;;;;12.63;6.00;;;-2.70;99.90;;;;;;5034224;28;20457;-81
2021/01/11 05:51:36;;;;;;;11.97;8.60;;;-2.40;99.90;;;;;;5050636;28;20411;-82
2021/01/11 05:54:03;;;;;;;8.57;7.67;;;-2.70;99.90;;;;;;5069373;28;20430;-81
2021/01/11 05:56:50;;;;;;;12.80;8.40;;;-3.20;99.90;;;;;;5086519;28;20439;-81
2021/01/11 05:59:16;;;;;;;14.77;6.60;;;-3.20;99.90;;;;;;5066278;28;20443;-81
2021/01/11 06:01:42;;;;;;;11.47;6.27;;;-3.50;99.90;;;;;;5077196;28;20441;-80
2021/01/11 06:04:08;;;;;;;8.33;6.37;;;-3.60;99.90;;;;;;5076876;28;20199;-82
2021/01/11 06:06:34;;;;;;;5.30;4.80;;;-3.60;99.90;;;;;;5071117;28;20179;-82
2021/01/11 06:08:59;;;;;;;8.87;6.60;;;-3.60;99.90;;;;;;5068980;28;20196;-81
2021/01/11 06:11:26;;;;;;;11.03;5.80;;;-3.50;99.90;;;;;;5053364;28;20194;-81
2021/01/11 06:13:54;;;;;;;6.63;5.67;;;-3.20;99.90;;;;;;5070426;28;20230;-81
2021/01/11 06:16:21;;;;;;;15.27;5.20;;;-2.80;99.90;;;;;;5071251;28;20867;-81
2021/01/11 06:18:50;;;;;;;7.10;6.40;;;-2.70;99.90;;;;;;5071657;28;20478;-81
2021/01/11 06:21:17;;;;;;;8.70;6.57;;;-2.50;99.90;;;;;;5073266;28;20445;-81
2021/01/11 06:23:43;;;;;;;11.27;5.60;;;-2.40;99.90;;;;;;5073089;28;20504;-82
2021/01/11 06:26:29;;;;;;;6.07;5.47;;;-2.30;99.90;;;;;;5098123;28;20377;-81
2021/01/11 06:28:56;;;;;;;6.17;5.60;;;-2.20;99.90;;;;;;5079211;28;20447;-81
2021/01/11 06:31:28;;;;;;;5.10;3.90;;;-2.80;99.90;;;;;;5090450;28;20385;-79
2021/01/11 06:33:56;;;;;;;7.10;6.57;;;-3.00;99.90;;;;;;5090255;28;20955;-81
2021/01/11 06:36:28;;;;;;;9.27;6.23;;;-3.40;99.90;;;;;;5090015;28;20389;-81
2021/01/11 06:38:54;;;;;;;5.13;4.67;;;-3.20;99.90;;;;;;5089917;28;20463;-81
2021/01/11 06:41:26;;;;;;;7.27;5.70;;;-3.40;99.90;;;;;;5090248;28;20415;-81
2021/01/11 06:43:53;;;;;;;13.10;7.03;;;-3.10;99.90;;;;;;5091076;28;20385;-81
2021/01/11 06:46:49;;;;;;;5.67;5.23;;;-3.30;99.90;;;;;;5090475;28;20386;-81
2021/01/11 06:49:31;;;;;;;13.17;6.17;;;-3.50;99.90;;;;;;5090671;28;20406;-79
2021/01/11 06:52:06;;;;;;;4.80;4.40;;;-3.50;99.90;;;;;;5089695;28;20402;-81
2021/01/11 06:54:41;;;;;;;10.23;4.77;;;-3.60;99.90;;;;;;5089839;28;20408;-81
2021/01/11 06:57:11;;;;;;;12.47;7.77;;;-3.30;99.90;;;;;;5089563;28;20393;-79
2021/01/11 06:59:37;;;;;;;10.03;6.50;;;-3.20;99.90;;;;;;5088533;28;20457;-79
2021/01/11 07:02:21;;;;;;;10.10;6.13;;;-3.40;99.90;;;;;;5088841;28;20870;-80
2021/01/11 07:04:47;;;;;;;9.63;5.60;;;-3.10;99.90;;;;;;5089535;28;20385;-81
2021/01/11 07:07:19;;;;;;;11.63;7.63;;;-3.40;99.90;;;;;;5089049;28;20863;-79
2021/01/11 07:10:02;;;;;;;4.60;4.20;;;-3.50;99.90;;;;;;5109150;28;20397;-81
2021/01/11 07:12:28;;;;;;;8.60;6.30;;;-3.10;99.90;;;;;;5091362;28;20429;-81
2021/01/11 07:14:56;;;;;;;11.43;7.73;;;-3.30;99.90;;;;;;5087386;28;20447;-81
2021/01/11 07:17:43;;;;;;;13.30;7.03;;;-3.50;99.90;;;;;;5063225;28;20449;-81
2021/01/11 07:20:12;;;;;;;9.83;6.47;;;-3.60;99.90;;;;;;5064417;28;20487;-81
2021/01/11 07:22:40;;;;;;;11.50;6.30;;;-3.40;99.90;;;;;;5077895;28;20429;-81
2021/01/11 07:25:11;;;;;;;8.50;5.73;;;-3.70;99.90;;;;;;5083881;28;20514;-80
2021/01/11 07:27:37;;;;;;;13.90;9.63;;;-3.70;99.90;;;;;;5094804;28;20477;-81
2021/01/11 07:30:03;;;;;;;11.33;4.93;;;-3.60;99.90;;;;;;5078474;28;20446;-81
2021/01/11 07:32:31;;;;;;;9.00;7.17;;;-3.40;99.90;;;;;;5078253;28;20203;-80
2021/01/11 07:35:01;;;;;;;14.60;8.23;;;-3.40;99.90;;;;;;5077163;28;20445;-79
2021/01/11 07:37:28;;;;;;;14.00;8.37;;;-3.20;99.90;;;;;;5085224;28;20495;-80
2021/01/11 07:39:54;;;;;;;14.80;6.90;;;-3.40;99.90;;;;;;5085337;28;20460;-80
2021/01/11 07:42:21;;;;;;;8.50;6.00;;;-3.50;99.90;;;;;;5076664;28;20435;-81
2021/01/11 07:44:47;;;;;;;9.27;4.97;;;-3.40;99.90;;;;;;5082014;28;20456;-80
2021/01/11 07:47:15;;;;;;;14.07;7.90;;;-3.60;99.90;;;;;;5089363;28;20541;-81
2021/01/11 07:49:48;;;;;;;12.33;6.43;;;-3.20;99.90;;;;;;5075391;28;20433;-81
2021/01/11 07:52:17;;;;;;;9.80;5.77;;;-3.40;99.90;;;;;;5077573;28;20441;-79
2021/01/11 07:54:44;;;;;;;8.43;4.70;;;-3.40;99.90;;;;;;5083950;28;20974;-79
2021/01/11 07:57:11;;;;;;;8.93;7.20;;;-3.30;99.90;;;;;;5081417;28;20442;-80
2021/01/11 07:59:38;;;;;;;9.93;5.97;;;-3.50;99.90;;;;;;5075517;28;20522;-79
2021/01/11 08:02:09;;;;;;;11.43;6.53;;;-3.30;99.90;;;;;;5083255;28;20493;-78
2021/01/11 08:04:38;;;;;;;12.83;8.00;;;-3.40;99.90;;;;;;5075114;28;20447;-80
2021/01/11 08:07:09;;;;;;;8.40;6.27;;;-3.10;99.90;;;;;;5063142;28;20561;-80
2021/01/11 08:09:36;;;;;;;8.27;7.47;;;-2.90;99.90;;;;;;5067271;28;20478;-80
2021/01/11 08:12:12;;;;;;;12.17;8.20;;;-3.20;99.90;;;;;;5060559;28;20485;-81
2021/01/11 08:14:41;;;;;;;19.63;8.40;;;-3.30;99.90;;;;;;5078102;28;20429;-80
2021/01/11 08:17:15;;;;;;;5.50;3.93;;;-3.50;99.90;;;;;;5054867;28;20596;-80
2021/01/11 08:19:42;;;;;;;11.70;5.60;;;-3.30;99.90;;;;;;5041953;28;20508;-80
2021/01/11 08:22:10;;;;;;;12.33;7.70;;;-3.30;99.90;;;;;;5080391;28;20480;-80
2021/01/11 08:24:36;;;;;;;12.37;6.30;;;-3.50;99.90;;;;;;5079465;28;20445;-80
2021/01/11 08:27:07;;;;;;;12.70;6.47;;;-3.60;99.90;;;;;;5083706;28;20414;-81
2021/01/11 08:29:38;;;;;;;7.60;6.80;;;-3.60;99.90;;;;;;5086181;28;20433;-81
2021/01/11 08:32:08;;;;;;;7.20;6.47;;;-3.40;99.90;;;;;;5083942;28;20460;-79
2021/01/11 08:34:34;;;;;;;10.63;8.13;;;-3.50;99.90;;;;;;5089827;28;20425;-80
2021/01/11 08:37:00;;;;;;;7.50;6.77;;;-3.60;99.90;;;;;;5081037;28;20498;-82
2021/01/11 08:39:26;;;;;;;11.60;7.13;;;-3.40;99.90;;;;;;5083454;28;20192;-80
2021/01/11 08:41:54;;;;;;;11.80;5.97;;;-3.50;99.90;;;;;;5089785;28;20524;-79
2021/01/11 08:44:26;;;;;;;18.60;7.40;;;-3.40;99.90;;;;;;5069501;28;20449;-81
2021/01/11 08:47:02;;;;;;;7.40;5.87;;;-3.50;99.90;;;;;;5089846;28;21304;-81
2021/01/11 08:49:28;;;;;;;10.47;6.20;;;-3.40;99.90;;;;;;5081566;28;20625;-81
2021/01/11 08:52:06;;;;;;;11.13;5.70;;;-3.20;99.90;;;;;;5081635;28;20431;-80
2021/01/11 08:54:32;;;;;;;11.63;7.20;;;-3.20;99.90;;;;;;5076253;28;20471;-80
2021/01/11 08:57:08;;;;;;;10.23;7.50;;;-3.00;99.90;;;;;;5083084;28;20421;-80
2021/01/11 08:59:35;;;;;;;18.30;8.17;;;-3.20;99.90;;;;;;5062276;28;20226;-80
2021/01/11 09:02:00;;;;;;;9.03;6.63;;;-3.30;99.90;;;;;;5079739;28;20429;-79
2021/01/11 09:04:36;;;;;;;5.47;5.03;;;-3.40;99.90;;;;;;5080669;28;20476;-80
2021/01/11 09:07:05;;;;;;;14.30;6.50;;;-3.40;99.90;;;;;;5073719;28;20253;-80
2021/01/11 09:09:33;;;;;;;13.70;7.50;;;-3.40;99.90;;;;;;5078294;28;20429;-81
2021/01/11 09:12:02;;;;;;;7.93;6.83;;;-3.30;99.90;;;;;;5056049;28;20433;-81
2021/01/11 09:14:28;;;;;;;23.70;9.17;;;-3.40;99.90;;;;;;5083550;28;20413;-81
2021/01/11 09:17:14;;;;;;;8.77;5.00;;;-3.30;99.90;;;;;;5062822;28;20446;-81
2021/01/11 09:19:39;;;;;;;8.30;6.63;;;-3.40;99.90;;;;;;5065308;28;20528;-81
2021/01/11 09:22:15;;;;;;;6.50;5.07;;;-3.30;99.90;;;;;;5048662;28;20280;-82
2021/01/11 09:24:42;;;;;;;10.90;7.43;;;-3.00;99.90;;;;;;5065058;28;20174;-80
2021/01/11 09:27:08;;;;;;;11.63;7.17;;;-3.20;99.90;;;;;;5060612;28;20473;-80
2021/01/11 09:29:35;;;;;;;15.60;7.30;;;-3.30;99.90;;;;;;5045269;28;20490;-80
2021/01/11 09:32:00;;;;;;;13.23;7.50;;;-3.30;99.90;;;;;;5069984;28;20468;-80
2021/01/11 09:34:26;;;;;;;17.77;9.60;;;-3.20;99.90;;;;;;5068383;28;20433;-80
2021/01/11 09:36:52;;;;;;;14.73;7.23;;;-3.10;99.90;;;;;;5068234;28;20203;-80
2021/01/11 09:39:18;;;;;;;8.43;5.70;;;-2.90;99.90;;;;;;5062593;28;20226;-80
2021/01/11 09:41:48;;;;;;;12.03;7.87;;;-3.00;99.90;;;;;;5037774;28;20188;-80
2021/01/11 09:44:16;;;;;;;12.20;5.30;;;-3.00;99.90;;;;;;5056258;28;20422;-81
2021/01/11 09:46:45;;;;;;;10.90;6.87;;;-3.20;99.90;;;;;;5059912;28;20442;-80
2021/01/11 09:49:11;;;;;;;10.07;7.67;;;-3.10;99.90;;;;;;5027345;28;20479;-80
2021/01/11 09:51:37;;;;;;;26.90;15.40;;;-3.10;99.90;;;;;;5060877;28;20892;-79
2021/01/11 09:54:03;;;;;;;15.73;8.03;;;-3.00;99.90;;;;;;5078093;28;20175;-80
2021/01/11 09:56:34;;;;;;;12.73;7.73;;;-3.00;99.90;;;;;;5068406;28;20835;-80
2021/01/11 09:59:00;;;;;;;7.40;6.20;;;-3.20;99.90;;;;;;5079453;28;20477;-82
2021/01/11 10:01:36;;;;;;;14.03;8.63;;;-2.80;99.90;;;;;;5081678;28;20498;-80
2021/01/11 10:04:03;;;;;;;7.60;4.27;;;-2.70;99.90;;;;;;5083910;28;20447;-81
2021/01/11 10:06:36;;;;;;;12.80;7.80;;;-2.90;99.90;;;;;;5088029;28;20438;-81
2021/01/11 10:09:02;;;;;;;10.00;7.77;;;-3.00;99.90;;;;;;5088528;28;20464;-82
2021/01/11 10:11:28;;;;;;;17.37;7.43;;;-2.90;99.90;;;;;;5086191;28;20448;-81
2021/01/11 10:13:54;;;;;;;17.90;11.20;;;-3.10;99.90;;;;;;5066482;28;20440;-81
2021/01/11 10:16:19;;;;;;;11.33;5.90;;;-2.80;99.90;;;;;;5062791;28;20187;-81
2021/01/11 10:18:46;;;;;;;10.20;7.67;;;-2.50;99.90;;;;;;5087428;28;20203;-81
2021/01/11 10:21:13;;;;;;;7.43;6.00;;;-2.60;99.90;;;;;;5063560;28;20199;-81
2021/01/11 10:23:39;;;;;;;14.23;7.03;;;-2.80;99.90;;;;;;5084115;28;20457;-81
2021/01/11 10:26:05;;;;;;;9.53;7.50;;;-3.00;99.90;;;;;;5069172;28;20453;-81
2021/01/11 10:28:31;;;;;;;14.47;8.20;;;-2.90;99.90;;;;;;5096320;28;20190;-79
2021/01/11 10:30:57;;;;;;;17.17;11.07;;;-2.70;99.90;;;;;;5067861;28;20442;-81
2021/01/11 10:33:23;;;;;;;11.60;6.90;;;-2.50;99.90;;;;;;5080437;28;20187;-81
2021/01/11 10:35:55;;;;;;;17.47;12.73;;;-2.20;99.90;;;;;;5085224;28;20831;-81
2021/01/11 10:38:21;;;;;;;15.30;10.27;;;-2.20;99.90;;;;;;5063548;28;20457;-81
2021/01/11 10:40:46;;;;;;;17.53;8.17;;;-2.50;99.90;;;;;;5065193;28;20433;-80
2021/01/11 10:43:12;;;;;;;10.67;9.57;;;-2.60;99.90;;;;;;5085396;28;20199;-80
2021/01/11 10:45:38;;;;;;;15.87;8.40;;;-2.70;99.90;;;;;;5061763;28;20207;-80
2021/01/11 10:48:07;;;;;;;14.50;9.43;;;-2.60;99.90;;;;;;5079359;28;20440;-81
2021/01/11 10:50:33;;;;;;;12.10;8.67;;;-2.60;99.90;;;;;;5081804;28;20420;-80
2021/01/11 10:52:59;;;;;;;17.00;9.50;;;-2.40;99.90;;;;;;5087169;28;20424;-80
2021/01/11 10:55:25;;;;;;;16.60;7.87;;;-2.20;99.90;;;;;;5075245;28;20174;-80
2021/01/11 10:57:51;;;;;;;21.10;12.20;;;-1.90;99.90;;;;;;5082941;28;20186;-80
2021/01/11 11:00:19;;;;;;;21.60;11.23;;;-1.60;99.90;;;;;;5078944;28;20436;-81
2021/01/11 11:02:44;;;;;;;15.23;9.37;;;-1.80;99.90;;;;;;5075267;28;20705;-80
2021/01/11 11:05:10;;;;;;;23.93;11.40;;;-1.90;99.90;;;;;;5074568;28;20433;-80
2021/01/11 11:07:38;;;;;;;15.07;8.67;;;-2.10;99.90;;;;;;5069002;28;20445;-80
2021/01/11 11:10:08;;;;;;;20.77;10.60;;;-1.90;99.90;;;;;;5059687;28;20493;-80
2021/01/11 11:12:35;;;;;;;21.33;10.37;;;-1.70;99.90;;;;;;5062636;28;20438;-80
2021/01/11 11:15:02;;;;;;;17.33;9.33;;;-2.10;99.90;;;;;;5058374;28;20518;-80
2021/01/11 11:17:32;;;;;;;17.93;11.27;;;-2.00;99.90;;;;;;5063398;28;20474;-80
2021/01/11 11:19:59;;;;;;;31.07;14.13;;;-2.20;99.90;;;;;;5045602;28;20470;-80
2021/01/11 11:22:25;;;;;;;22.43;11.67;;;-2.00;99.90;;;;;;5056335;28;20619;-80
2021/01/11 11:24:51;;;;;;;13.93;11.50;;;-2.10;99.90;;;;;;5066122;28;20852;-80
2021/01/11 11:27:20;;;;;;;19.57;11.43;;;-1.80;99.90;;;;;;5052238;28;20495;-80
2021/01/11 11:29:48;;;;;;;19.50;11.30;;;-2.00;99.90;;;;;;5061480;28;20474;-82
2021/01/11 11:32:16;;;;;;;13.07;9.10;;;-2.10;99.90;;;;;;5060582;28;20191;-80
2021/01/11 11:34:42;;;;;;;13.27;7.23;;;-2.10;99.90;;;;;;5057220;28;20437;-81
2021/01/11 11:37:08;;;;;;;17.47;10.07;;;-2.10;99.90;;;;;;5058815;28;20458;-81
2021/01/11 11:39:34;;;;;;;14.07;9.93;;;-2.10;99.90;;;;;;5062316;28;20775;-81
2021/01/11 11:42:02;;;;;;;12.90;9.67;;;-2.00;99.90;;;;;;5040088;28;20208;-82
2021/01/11 11:44:28;;;;;;;21.50;13.00;;;-1.80;99.90;;;;;;5055635;28;20575;-80
2021/01/11 11:46:54;;;;;;;27.43;9.20;;;-1.90;99.90;;;;;;5057323;28;20538;-81
2021/01/11 11:49:22;;;;;;;14.43;8.97;;;-1.70;99.90;;;;;;5059717;28;20257;-82
2021/01/11 11:51:48;;;;;;;19.07;9.63;;;-1.70;99.90;;;;;;5052660;28;20452;-81
2021/01/11 11:54:14;;;;;;;14.07;8.33;;;-1.60;99.90;;;;;;5060345;28;20453;-82
2021/01/11 11:56:42;;;;;;;23.73;13.83;;;-2.00;99.90;;;;;;5042309;28;20459;-81
2021/01/11 11:59:09;;;;;;;32.43;12.50;;;-2.00;99.90;;;;;;5060944;28;20585;-82
2021/01/11 12:01:40;;;;;;;16.77;11.30;;;-2.00;99.90;;;;;;5025493;28;20439;-81
2021/01/11 12:04:07;;;;;;;14.70;12.63;;;-2.00;99.90;;;;;;5056162;28;20430;-80
2021/01/11 12:06:38;;;;;;;16.40;10.97;;;-1.80;99.90;;;;;;5055591;28;20497;-81
2021/01/11 12:09:04;;;;;;;22.50;11.27;;;-1.80;99.90;;;;;;5052425;28;20799;-82
2021/01/11 12:11:39;;;;;;;21.50;13.10;;;-1.80;99.90;;;;;;5038020;28;20435;-81
2021/01/11 12:14:09;;;;;;;16.83;9.40;;;-2.00;99.90;;;;;;5038604;28;20419;-81
2021/01/11 12:16:35;;;;;;;21.17;11.60;;;-1.70;99.90;;;;;;5056720;28;20773;-81
2021/01/11 12:19:01;;;;;;;20.90;14.07;;;-1.80;99.90;;;;;;5054843;28;20458;-83
2021/01/11 12:21:29;;;;;;;32.53;11.50;;;-1.70;99.90;;;;;;5053856;28;20196;-81
2021/01/11 12:23:54;;;;;;;20.53;10.20;;;-1.70;99.90;;;;;;5053909;28;20181;-83
2021/01/11 12:26:20;;;;;;;21.90;10.17;;;-1.60;99.90;;;;;;5055234;28;20501;-81
2021/01/11 12:28:46;;;;;;;23.47;11.37;;;-1.50;99.90;;;;;;5032173;28;20168;-83
2021/01/11 12:31:12;;;;;;;17.60;10.60;;;-1.40;99.90;;;;;;5055983;28;20227;-83
2021/01/11 12:33:37;;;;;;;12.50;8.00;;;-1.60;99.90;;;;;;5055220;28;20188;-80
2021/01/11 12:36:03;;;;;;;19.17;9.23;;;-1.90;99.90;;;;;;5054343;28;20594;-80
2021/01/11 12:38:29;;;;;;;18.23;10.50;;;-1.70;99.90;;;;;;5055930;28;20200;-80
2021/01/11 12:40:55;;;;;;;19.20;11.93;;;-1.50;99.90;;;;;;5057891;28;20448;-80
2021/01/11 12:43:21;;;;;;;17.57;11.10;;;-1.50;99.90;;;;;;5057426;28;20195;-81